createdAt,value
2023-05-20T00:01:57.506Z,5.20
2023-05-20T00:04:27.347Z,4.60
2023-05-20T00:06:56.219Z,4.90
2023-05-20T00:09:24.900Z,5.03
2023-05-20T00:11:53.354Z,5.10
2023-05-20T00:14:21.742Z,4.90
2023-05-20T00:16:51.152Z,5.23
2023-05-20T00:19:19.708Z,5.10
2023-05-20T00:21:49.661Z,4.50
2023-05-20T00:24:18.113Z,5.03
2023-05-20T00:26:46.606Z,4.30
2023-05-20T00:29:15.127Z,4.50
2023-05-20T00:31:43.721Z,4.53
2023-05-20T00:34:12.264Z,4.00
2023-05-20T00:36:40.676Z,4.83
2023-05-20T00:39:10.563Z,4.73
2023-05-20T00:41:39.159Z,4.83
2023-05-20T00:44:12.834Z,4.30
2023-05-20T00:46:41.316Z,4.80
2023-05-20T00:49:10.209Z,4.63
2023-05-20T00:51:39.907Z,4.40
2023-05-20T00:54:10.109Z,4.47
2023-05-20T00:56:39.054Z,4.20
2023-05-20T00:59:09.162Z,4.70
2023-05-20T01:01:37.681Z,4.90
2023-05-20T01:04:06.432Z,4.27
2023-05-20T01:06:34.881Z,4.93
2023-05-20T01:09:03.863Z,5.10
2023-05-20T01:11:36.337Z,5.20
2023-05-20T01:14:08.467Z,4.70
2023-05-20T01:16:37.620Z,5.13
2023-05-20T01:19:08.920Z,4.50
2023-05-20T01:21:37.620Z,5.10
2023-05-20T01:24:08.398Z,5.13
2023-05-20T01:26:38.496Z,4.40
2023-05-20T01:29:06.982Z,5.20
2023-05-20T01:31:39.300Z,4.60
2023-05-20T01:34:08.182Z,5.53
2023-05-20T01:36:36.875Z,4.77
2023-05-20T01:39:07.030Z,4.60
2023-05-20T01:41:37.357Z,5.33
2023-05-20T01:44:06.022Z,4.90
2023-05-20T01:46:34.984Z,5.00
2023-05-20T01:49:04.356Z,4.97
2023-05-20T01:51:35.170Z,4.50
2023-05-20T01:54:04.768Z,5.07
2023-05-20T01:56:34.581Z,4.50
2023-05-20T01:59:03.312Z,4.80
2023-05-20T02:01:31.876Z,4.40
2023-05-20T02:04:00.350Z,4.57
2023-05-20T02:06:28.820Z,4.77
2023-05-20T02:08:57.337Z,4.63
2023-05-20T02:11:26.274Z,4.77
2023-05-20T02:13:57.616Z,4.57
2023-05-20T02:16:26.440Z,4.73
2023-05-20T02:18:55.181Z,4.23
2023-05-20T02:21:24.441Z,5.63
2023-05-20T02:23:53.156Z,4.90
2023-05-20T02:26:22.765Z,5.10
2023-05-20T02:28:51.769Z,4.67
2023-05-20T02:31:24.421Z,5.03
2023-05-20T02:33:52.943Z,5.20
2023-05-20T02:36:21.524Z,4.80
2023-05-20T02:38:51.146Z,5.50
2023-05-20T02:41:19.902Z,5.33
2023-05-20T02:43:49.026Z,5.00
2023-05-20T02:46:18.748Z,6.07
2023-05-20T02:48:48.732Z,5.80
2023-05-20T02:51:17.266Z,6.00
2023-05-20T02:53:45.868Z,5.63
2023-05-20T02:56:14.404Z,5.20
2023-05-20T02:58:44.491Z,5.83
2023-05-20T03:01:14.156Z,5.43
2023-05-20T03:03:42.710Z,5.90
2023-05-20T03:06:12.632Z,6.23
2023-05-20T03:08:42.890Z,5.50
2023-05-20T03:11:11.464Z,5.83
2023-05-20T03:13:39.997Z,5.83
2023-05-20T03:16:08.620Z,5.97
2023-05-20T03:18:37.127Z,5.93
2023-05-20T03:21:06.775Z,6.40
2023-05-20T03:23:36.579Z,6.43
2023-05-20T03:26:06.832Z,5.40
2023-05-20T03:28:35.624Z,6.57
2023-05-20T03:31:04.596Z,6.63
2023-05-20T03:33:35.522Z,6.70
2023-05-20T03:36:05.328Z,6.53
2023-05-20T03:38:34.236Z,6.03
2023-05-20T03:41:04.412Z,6.77
2023-05-20T03:43:34.576Z,6.30
2023-05-20T03:46:03.092Z,6.67
2023-05-20T03:48:31.557Z,6.93
2023-05-20T03:51:00.062Z,6.73
2023-05-20T03:53:28.793Z,6.37
2023-05-20T03:55:57.377Z,6.30
2023-05-20T03:58:31.312Z,6.83
2023-05-20T04:00:59.813Z,6.90
2023-05-20T04:03:29.184Z,6.83
2023-05-20T04:05:57.724Z,7.00
2023-05-20T04:08:27.010Z,7.63
2023-05-20T04:10:57.759Z,8.03
2023-05-20T04:13:28.155Z,6.80
2023-05-20T04:15:56.613Z,6.93
2023-05-20T04:18:25.903Z,7.27
2023-05-20T04:20:56.624Z,7.07
2023-05-20T04:23:25.477Z,7.70
2023-05-20T04:25:55.928Z,7.83
2023-05-20T04:28:28.324Z,6.83
2023-05-20T04:31:02.833Z,7.40
2023-05-20T04:33:33.000Z,7.20
2023-05-20T04:36:03.205Z,7.47
2023-05-20T04:38:34.843Z,7.30
2023-05-20T04:41:03.972Z,7.87
2023-05-20T04:43:33.960Z,7.37
2023-05-20T04:46:06.058Z,7.23
2023-05-20T04:48:35.984Z,7.80
2023-05-20T04:51:04.473Z,7.60
2023-05-20T04:53:34.071Z,7.63
2023-05-20T04:56:03.529Z,8.27
2023-05-20T04:58:33.532Z,7.97
2023-05-20T05:01:04.035Z,7.63
2023-05-20T05:03:32.519Z,7.80
2023-05-20T05:06:01.306Z,7.90
2023-05-20T05:08:30.281Z,8.47
2023-05-20T05:10:59.907Z,8.47
2023-05-20T05:13:28.484Z,7.93
2023-05-20T05:16:00.608Z,7.90
2023-05-20T05:18:32.621Z,8.23
2023-05-20T05:21:01.832Z,8.03
2023-05-20T05:23:30.370Z,8.20
2023-05-20T05:25:59.082Z,9.37
2023-05-20T05:28:29.991Z,9.40
2023-05-20T05:30:59.352Z,9.90
2023-05-20T05:33:28.642Z,9.73
2023-05-20T05:36:01.251Z,9.93
2023-05-20T05:38:29.755Z,11.00
2023-05-20T05:40:58.206Z,10.30
2023-05-20T05:43:26.658Z,11.23
2023-05-20T05:45:55.229Z,12.33
2023-05-20T05:48:23.867Z,12.13
2023-05-20T05:50:52.726Z,12.43
2023-05-20T05:53:25.198Z,12.33
2023-05-20T05:55:53.952Z,13.20
2023-05-20T05:58:22.403Z,13.63
2023-05-20T06:00:54.916Z,12.93
2023-05-20T06:03:24.093Z,13.03
2023-05-20T06:05:54.992Z,12.97
2023-05-20T06:08:24.835Z,12.97
2023-05-20T06:10:53.399Z,12.83
2023-05-20T06:13:22.281Z,13.97
2023-05-20T06:15:51.473Z,13.53
2023-05-20T06:18:20.042Z,12.87
2023-05-20T06:20:48.977Z,12.90
2023-05-20T06:23:17.588Z,12.07
2023-05-20T06:26:01.461Z,12.20
2023-05-20T06:28:32.449Z,12.70
2023-05-20T06:31:01.258Z,13.10
2023-05-20T06:33:33.535Z,13.87
2023-05-20T06:36:07.676Z,13.67
2023-05-20T06:38:36.138Z,14.10
2023-05-20T06:41:06.688Z,12.97
2023-05-20T06:43:35.582Z,12.20
2023-05-20T06:46:12.215Z,12.87
2023-05-20T06:48:46.558Z,11.97
2023-05-20T06:54:11.050Z,13.37
2023-05-20T06:56:41.186Z,11.13
2023-05-20T06:59:09.912Z,11.70
2023-05-20T07:01:39.670Z,11.97
2023-05-20T07:04:09.029Z,12.30
2023-05-20T07:06:38.021Z,11.27
2023-05-20T07:11:55.909Z,12.37
2023-05-20T07:14:25.209Z,11.20
2023-05-20T07:16:54.078Z,11.13
2023-05-20T07:19:23.400Z,11.50
2023-05-20T07:21:52.590Z,12.43
2023-05-20T07:24:38.278Z,11.40
2023-05-20T07:27:09.856Z,12.13
2023-05-20T07:29:38.723Z,11.80
2023-05-20T07:32:08.536Z,11.53
2023-05-20T07:34:37.501Z,11.00
2023-05-20T07:37:06.295Z,11.13
2023-05-20T07:39:34.918Z,11.70
2023-05-20T07:42:03.797Z,12.20
2023-05-20T07:47:43.660Z,10.70
2023-05-20T07:50:13.725Z,11.47
2023-05-20T07:52:56.123Z,10.90
2023-05-20T07:55:29.006Z,11.57
2023-05-20T07:57:58.665Z,10.77
2023-05-20T08:00:27.590Z,10.37
2023-05-20T08:02:57.661Z,10.63
2023-05-20T08:05:33.599Z,10.63
2023-05-20T08:08:05.058Z,9.90
2023-05-20T08:10:44.321Z,10.03
2023-05-20T08:13:15.246Z,10.50
2023-05-20T08:15:44.147Z,10.47
2023-05-20T08:18:17.208Z,10.23
2023-05-20T08:20:45.869Z,11.00
2023-05-20T08:23:14.733Z,9.20
2023-05-20T08:25:46.952Z,9.27
2023-05-20T08:28:15.921Z,10.03
2023-05-20T08:30:44.569Z,10.03
2023-05-20T08:33:14.824Z,10.33
2023-05-20T08:35:43.509Z,9.13
2023-05-20T08:38:12.272Z,9.35
2023-05-20T08:40:41.162Z,9.00
2023-05-20T08:43:11.533Z,9.00
2023-05-20T08:45:40.740Z,8.98
2023-05-20T08:48:21.871Z,8.97
2023-05-20T08:50:52.463Z,9.13
2023-05-20T08:53:22.783Z,9.30
2023-05-20T08:55:55.447Z,8.70
2023-05-20T08:58:24.671Z,8.13
2023-05-20T09:00:53.872Z,7.10
2023-05-20T09:03:25.747Z,7.72
2023-05-20T09:05:55.736Z,6.85
2023-05-20T09:08:27.474Z,7.15
2023-05-20T09:10:56.210Z,6.93
2023-05-20T09:13:26.541Z,6.80
2023-05-20T09:15:55.596Z,7.90
2023-05-20T09:18:28.068Z,7.53
2023-05-20T09:20:56.804Z,7.78
2023-05-20T09:23:27.958Z,7.53
2023-05-20T09:25:56.599Z,7.97
2023-05-20T09:28:27.009Z,7.20
2023-05-20T09:30:59.646Z,7.25
2023-05-20T09:33:32.087Z,6.68
2023-05-20T09:36:05.759Z,7.50
2023-05-20T09:38:40.381Z,6.80
2023-05-20T09:41:10.069Z,7.55
2023-05-20T09:43:40.000Z,7.32
2023-05-20T09:46:09.333Z,6.82
2023-05-20T09:48:40.002Z,6.80
2023-05-20T09:51:09.445Z,6.40
2023-05-20T09:53:38.158Z,6.88
2023-05-20T09:56:07.036Z,6.25
2023-05-20T09:58:37.845Z,7.07
2023-05-20T10:01:08.095Z,6.35
2023-05-20T10:03:37.237Z,6.07
2023-05-20T10:06:20.541Z,6.95
2023-05-20T10:09:00.005Z,6.75
2023-05-20T10:11:32.442Z,6.35
2023-05-20T10:14:07.502Z,5.50
2023-05-20T10:16:41.963Z,5.18
2023-05-20T10:19:16.332Z,5.40
2023-05-20T10:21:46.144Z,6.32
2023-05-20T10:24:15.991Z,5.72
2023-05-20T10:26:44.609Z,5.93
2023-05-20T10:29:18.397Z,4.63
2023-05-20T10:31:47.036Z,5.00
2023-05-20T10:34:18.077Z,5.13
2023-05-20T10:36:59.377Z,5.10
2023-05-20T10:39:31.483Z,5.05
2023-05-20T10:42:09.838Z,5.78
2023-05-20T10:44:44.994Z,5.28
2023-05-20T10:49:46.668Z,5.88
2023-05-20T10:52:17.389Z,5.18
2023-05-20T10:54:47.343Z,4.97
2023-05-20T10:57:17.198Z,5.45
2023-05-20T10:59:47.477Z,5.10
2023-05-20T11:02:18.070Z,4.93
2023-05-20T11:04:47.279Z,5.75
2023-05-20T11:07:29.225Z,5.47
2023-05-20T11:10:00.361Z,5.57
2023-05-20T11:12:30.157Z,5.47
2023-05-20T11:14:59.050Z,4.97
2023-05-20T11:17:27.973Z,5.18
2023-05-20T11:19:56.838Z,5.30
2023-05-20T11:22:26.781Z,4.63
2023-05-20T11:24:55.435Z,4.90
2023-05-20T11:27:23.932Z,5.45
2023-05-20T11:29:53.073Z,4.63
2023-05-20T11:32:22.075Z,4.88
2023-05-20T11:34:54.048Z,4.53
2023-05-20T11:37:26.900Z,4.85
2023-05-20T11:40:09.694Z,4.53
2023-05-20T11:42:39.616Z,4.20
2023-05-20T11:45:15.327Z,4.05
2023-05-20T11:47:44.276Z,4.07
2023-05-20T11:50:14.461Z,4.00
2023-05-20T11:52:43.050Z,4.13
2023-05-20T11:55:16.742Z,4.30
2023-05-20T11:57:46.320Z,4.50
2023-05-20T12:00:15.541Z,4.35
2023-05-20T12:02:44.142Z,3.90
2023-05-20T12:05:13.732Z,3.50
2023-05-20T12:07:44.793Z,3.70
2023-05-20T12:10:15.339Z,3.58
2023-05-20T12:12:46.563Z,3.38
2023-05-20T12:15:15.533Z,4.13
2023-05-20T12:17:48.602Z,4.10
2023-05-20T12:20:18.998Z,3.55
2023-05-20T12:22:48.103Z,4.35
2023-05-20T12:25:19.483Z,3.90
2023-05-20T12:27:48.554Z,4.20
2023-05-20T12:30:17.981Z,4.20
2023-05-20T12:32:47.040Z,4.13
2023-05-20T12:35:15.679Z,3.53
2023-05-20T12:37:44.830Z,3.40
2023-05-20T12:40:14.012Z,4.28
2023-05-20T12:42:49.340Z,3.72
2023-05-20T12:45:18.394Z,3.60
2023-05-20T12:47:46.894Z,3.53
2023-05-20T12:50:15.699Z,3.45
2023-05-20T12:52:44.426Z,3.30
2023-05-20T12:55:13.810Z,3.22
2023-05-20T12:57:46.679Z,3.30
2023-05-20T13:00:15.614Z,3.92
2023-05-20T13:02:45.789Z,3.90
2023-05-20T13:05:16.363Z,4.50
2023-05-20T13:07:44.942Z,3.95
2023-05-20T13:10:14.194Z,4.43
2023-05-20T13:12:45.973Z,4.20
2023-05-20T13:15:16.269Z,4.03
2023-05-20T13:17:47.542Z,3.42
2023-05-20T13:20:19.166Z,3.83
2023-05-20T13:22:50.296Z,3.30
2023-05-20T13:25:19.264Z,4.00
2023-05-20T13:27:47.725Z,4.07
2023-05-20T13:30:17.521Z,3.67
2023-05-20T13:32:46.335Z,3.90
2023-05-20T13:35:16.808Z,3.45
2023-05-20T13:37:45.686Z,3.88
2023-05-20T13:40:14.659Z,3.35
2023-05-20T13:42:44.194Z,3.45
2023-05-20T13:45:13.354Z,3.60
2023-05-20T13:47:43.710Z,3.60
2023-05-20T13:50:13.052Z,3.72
2023-05-20T13:52:41.904Z,3.92
2023-05-20T13:55:12.075Z,3.75
2023-05-20T13:57:40.870Z,3.92
2023-05-20T14:00:18.835Z,4.28
2023-05-20T14:02:51.698Z,4.68
2023-05-20T14:05:21.227Z,5.00
2023-05-20T14:07:49.677Z,4.78
2023-05-20T14:10:18.189Z,4.85
2023-05-20T14:12:48.253Z,4.95
2023-05-20T14:15:16.850Z,4.85
2023-05-20T14:17:45.389Z,5.18
2023-05-20T14:20:15.509Z,5.22
2023-05-20T14:22:44.110Z,4.57
2023-05-20T14:25:14.581Z,4.80
2023-05-20T14:27:43.070Z,4.88
2023-05-20T14:30:11.990Z,5.03
2023-05-20T14:32:40.795Z,5.30
2023-05-20T14:35:09.765Z,5.05
2023-05-20T14:37:39.698Z,5.30
2023-05-20T14:40:08.787Z,5.13
2023-05-20T14:42:38.310Z,5.30
2023-05-20T14:45:07.462Z,5.80
2023-05-20T14:47:36.099Z,5.30
2023-05-20T14:50:04.644Z,5.95
2023-05-20T14:52:33.093Z,5.38
2023-05-20T14:55:03.154Z,6.25
2023-05-20T14:57:31.946Z,6.30
2023-05-20T15:00:00.433Z,6.00
2023-05-20T15:02:30.289Z,6.25
2023-05-20T15:04:58.722Z,5.35
2023-05-20T15:07:27.939Z,5.57
2023-05-20T15:09:56.417Z,6.00
2023-05-20T15:12:26.784Z,5.03
2023-05-20T15:14:55.187Z,4.65
2023-05-20T15:17:23.773Z,5.78
2023-05-20T15:19:52.474Z,5.35
2023-05-20T15:22:20.832Z,5.47
2023-05-20T15:24:49.179Z,4.60
2023-05-20T15:27:17.549Z,5.03
2023-05-20T15:29:48.873Z,4.80
2023-05-20T15:32:19.852Z,5.47
2023-05-20T15:34:48.400Z,4.97
2023-05-20T15:37:17.159Z,5.00
2023-05-20T15:39:45.910Z,5.60
2023-05-20T15:42:18.737Z,5.60
2023-05-20T15:44:48.650Z,5.85
2023-05-20T15:47:18.380Z,6.22
2023-05-20T15:49:47.432Z,5.95
2023-05-20T15:52:17.246Z,5.85
2023-05-20T15:54:45.881Z,6.32
2023-05-20T15:57:14.327Z,5.82
2023-05-20T15:59:42.823Z,6.35
2023-05-20T16:02:14.939Z,6.32
2023-05-20T16:04:43.426Z,6.30
2023-05-20T16:07:12.963Z,6.45
2023-05-20T16:09:42.794Z,6.25
2023-05-20T16:12:12.326Z,6.05
2023-05-20T16:14:40.977Z,5.97
2023-05-20T16:17:13.020Z,6.28
2023-05-20T16:19:41.526Z,6.90
2023-05-20T16:22:10.380Z,6.28
2023-05-20T16:24:39.966Z,6.43
2023-05-20T16:27:09.129Z,6.97
2023-05-20T16:29:40.378Z,6.75
2023-05-20T16:32:09.188Z,6.53
2023-05-20T16:34:40.903Z,6.65
2023-05-20T16:37:10.245Z,6.70
2023-05-20T16:39:40.080Z,6.97
2023-05-20T16:42:09.200Z,6.78
2023-05-20T16:44:39.619Z,6.68
2023-05-20T16:47:08.839Z,7.10
2023-05-20T16:49:40.600Z,6.90
2023-05-20T16:52:09.240Z,7.20
2023-05-20T16:54:38.142Z,7.28
2023-05-20T16:57:07.746Z,7.70
2023-05-20T16:59:36.180Z,7.00
2023-05-20T17:02:04.587Z,6.75
2023-05-20T17:04:35.138Z,7.30
2023-05-20T17:07:09.912Z,7.25
2023-05-20T17:09:38.374Z,7.07
2023-05-20T17:12:07.164Z,7.30
2023-05-20T17:14:35.869Z,7.28
2023-05-20T17:17:05.996Z,7.22
2023-05-20T17:19:34.554Z,7.18
2023-05-20T17:22:03.536Z,7.30
2023-05-20T17:24:35.280Z,7.65
2023-05-20T17:27:06.057Z,7.47
2023-05-20T17:29:34.612Z,7.35
2023-05-20T17:32:03.660Z,7.03
2023-05-20T17:34:33.074Z,7.53
2023-05-20T17:37:02.713Z,8.40
2023-05-20T17:39:31.364Z,7.47
2023-05-20T17:42:01.917Z,6.95
2023-05-20T17:44:31.968Z,7.60
2023-05-20T17:47:00.510Z,8.00
2023-05-20T17:49:29.069Z,7.93
2023-05-20T17:51:59.099Z,7.07
2023-05-20T17:54:29.804Z,6.47
2023-05-20T17:57:01.505Z,7.35
2023-05-20T17:59:30.056Z,7.53
2023-05-20T18:01:58.921Z,7.53
2023-05-20T18:04:36.433Z,7.15
2023-05-20T18:07:05.573Z,7.60
2023-05-20T18:09:34.193Z,7.22
2023-05-20T18:12:04.186Z,7.00
2023-05-20T18:14:32.948Z,7.60
2023-05-20T18:17:01.424Z,7.35
2023-05-20T18:19:29.997Z,7.05
2023-05-20T18:21:58.791Z,7.70
2023-05-20T18:24:28.020Z,7.35
2023-05-20T18:26:56.463Z,7.47
2023-05-20T18:29:27.656Z,6.95
2023-05-20T18:31:56.244Z,7.95
2023-05-20T18:34:24.889Z,7.82
2023-05-20T18:36:54.225Z,7.78
2023-05-20T18:39:23.751Z,7.45
2023-05-20T18:41:52.557Z,7.20
2023-05-20T18:44:21.079Z,7.30
2023-05-20T18:46:51.941Z,8.20
2023-05-20T18:49:20.821Z,7.80
2023-05-20T18:51:49.801Z,7.22
2023-05-20T18:54:18.453Z,7.63
2023-05-20T18:56:51.521Z,8.00
2023-05-20T18:59:21.915Z,7.85
2023-05-20T19:01:53.157Z,7.72
2023-05-20T19:04:21.933Z,7.82
2023-05-20T19:06:50.814Z,8.25
2023-05-20T19:09:19.403Z,8.57
2023-05-20T19:11:56.862Z,8.45
2023-05-20T19:14:25.793Z,8.10
2023-05-20T19:16:58.672Z,8.52
2023-05-20T19:19:27.454Z,8.10
2023-05-20T19:21:56.157Z,8.40
2023-05-20T19:24:25.304Z,8.45
2023-05-20T19:26:53.829Z,8.20
2023-05-20T19:29:22.353Z,8.40
2023-05-20T19:31:51.235Z,8.50
2023-05-20T19:34:25.125Z,8.50
2023-05-20T19:36:53.899Z,8.38
2023-05-20T19:39:22.532Z,8.20
2023-05-20T19:41:52.993Z,8.52
2023-05-20T19:44:21.477Z,8.40
2023-05-20T19:46:50.192Z,9.40
2023-05-20T19:49:18.955Z,9.45
2023-05-20T19:51:49.009Z,9.43
2023-05-20T19:54:17.703Z,9.23
2023-05-20T19:56:46.208Z,9.40
2023-05-20T20:02:12.214Z,9.48
2023-05-20T20:04:42.323Z,10.25
2023-05-20T20:07:14.595Z,9.63
2023-05-20T20:09:45.232Z,9.90
2023-05-20T20:12:17.341Z,10.93
2023-05-20T20:14:47.180Z,10.82
2023-05-20T20:17:19.605Z,10.90
2023-05-20T20:19:49.231Z,11.27
2023-05-20T20:22:21.675Z,11.30
2023-05-20T20:24:51.306Z,10.95
2023-05-20T20:27:20.555Z,11.55
2023-05-20T20:29:49.028Z,11.45
2023-05-20T20:32:18.003Z,11.75
2023-05-20T20:34:46.798Z,11.52
2023-05-20T20:37:19.592Z,12.38
2023-05-20T20:39:50.075Z,12.90
2023-05-20T20:42:18.898Z,12.23
2023-05-20T20:44:48.491Z,11.95
2023-05-20T20:47:17.259Z,12.50
2023-05-20T20:49:46.080Z,12.70
2023-05-20T20:52:14.795Z,12.07
2023-05-20T21:00:40.215Z,12.88
2023-05-20T21:03:09.981Z,12.43
2023-05-20T21:05:39.731Z,12.77
2023-05-20T21:14:06.661Z,13.65
2023-05-20T21:16:50.610Z,13.00
2023-05-20T21:19:19.250Z,13.70
2023-05-20T21:21:48.013Z,12.63
2023-05-20T21:24:16.794Z,13.07
2023-05-20T21:26:45.251Z,12.90
2023-05-20T21:29:13.756Z,13.07
2023-05-20T21:32:06.030Z,13.30
2023-05-20T21:34:37.065Z,13.48
2023-05-20T21:37:05.630Z,12.90
2023-05-20T21:39:34.372Z,13.57
2023-05-20T21:42:02.886Z,13.18
2023-05-20T21:44:31.304Z,12.85
2023-05-20T21:46:59.717Z,13.80
2023-05-20T21:52:14.214Z,13.00
2023-05-20T21:54:42.600Z,13.45
2023-05-20T21:57:11.621Z,13.23
2023-05-20T21:59:40.344Z,13.98
2023-05-20T22:02:09.032Z,13.57
2023-05-20T22:04:38.140Z,14.40
2023-05-20T22:07:07.757Z,13.85
2023-05-20T22:09:40.022Z,14.52
2023-05-20T22:12:11.413Z,13.02
2023-05-20T22:14:41.446Z,14.02
2023-05-20T22:17:10.599Z,13.13
2023-05-20T22:19:40.534Z,12.98
2023-05-20T22:22:09.611Z,13.85
2023-05-20T22:27:28.471Z,13.23
2023-05-20T22:29:56.884Z,13.00
2023-05-20T22:32:25.394Z,13.43
2023-05-20T22:34:58.577Z,13.52
2023-05-20T22:37:28.808Z,12.60
2023-05-20T22:39:57.384Z,13.35
2023-05-20T22:42:26.224Z,14.13
2023-05-20T22:44:56.278Z,13.98
2023-05-20T22:47:24.712Z,13.63
2023-05-20T22:49:53.291Z,13.00
2023-05-20T22:52:25.409Z,14.52
2023-05-20T22:54:54.430Z,14.82
2023-05-20T22:57:22.882Z,14.93
2023-05-20T22:59:52.101Z,14.70
2023-05-20T23:02:23.154Z,14.70
2023-05-20T23:04:51.822Z,14.73
2023-05-20T23:07:20.625Z,15.10
2023-05-20T23:09:49.410Z,15.55
2023-05-20T23:12:19.283Z,13.63
2023-05-20T23:14:52.028Z,14.48
2023-05-20T23:17:27.375Z,13.75
2023-05-20T23:19:55.912Z,14.05
2023-05-20T23:22:47.914Z,13.77
2023-05-20T23:31:10.415Z,12.93
2023-05-20T23:33:42.448Z,13.68
2023-05-20T23:36:12.611Z,13.68
2023-05-20T23:38:43.274Z,12.40
2023-05-20T23:41:11.630Z,12.73
2023-05-20T23:43:40.038Z,13.52
2023-05-20T23:46:09.541Z,12.90
2023-05-20T23:48:38.043Z,12.90
2023-05-20T23:51:10.555Z,13.13
2023-05-20T23:53:39.341Z,12.65
2023-05-20T23:56:08.543Z,13.40
2023-05-20T23:58:37.239Z,12.65
